Kaihou — 7JCA — position and weather

sailwx.info

Track history (hours):
 
Tides and Currents Weather Stations Pressure Air Temp Water Temp Dewpoint Dewpoint Depression Visibility Wind Speed Wind Dir Waves Ship Positions

Kaihou

Last reported at 2018-Feb-22 15:01 UTC. Time now 2018-Feb-24 06:07 UTC.
Position N 34°39' E 139°27'.

Length 33 m; draft 3.8 m.

Type: Towing. MMSI: 431402046.

Date/timePositionNaut miles runAvg speedWind from/ knotsBaromVisibWave heightAir tempDewpointWater temp
2018-Feb-22 15:01N 34°39' E 139°27'0 2.0
2018-Feb-22 15:00N 34°39' E 139°27'9 4.3
2018-Feb-22 12:48N 34°37' E 139°15'3 4.8
2018-Feb-22 12:09N 34°36' E 139°12'1 4.1
2018-Feb-22 12:00N 34°36' E 139°11'2 4.1
2018-Feb-22 11:30N 34°35' E 139°09'4 3.9
2018-Feb-22 10:36N 34°34' E 139°05'1 4.1
2018-Feb-22 10:25N 34°34' E 139°04'2 4.5
2018-Feb-22 09:58N 34°33' E 139°01'2 4.5
2018-Feb-22 09:30N 34°33' E 138°59'2 5.0
2018-Feb-22 09:00N 34°32' E 138°56'3 5.3
2018-Feb-22 08:27N 34°32' E 138°52'12 3.9
2018-Feb-22 05:27N 34°32' E 138°38'3 4.8
2018-Feb-22 04:48N 34°32' E 138°35'1 4.8
2018-Feb-22 04:29N 34°32' E 138°33'16 4.7
2018-Feb-22 01:11N 34°32' E 138°14'2 4.8
2018-Feb-22 00:51N 34°32' E 138°12'162 3.9
2018-Feb-20 07:10N 33°50' E 135°02'1 5.4
2018-Feb-20 06:56N 33°50' E 135°01'5 5.3
2018-Feb-20 06:03N 33°54' E 134°58'0 5.4
2018-Feb-20 05:58N 33°54' E 134°57'2 5.2
2018-Feb-20 05:29N 33°56' E 134°56'3 5.0
2018-Feb-20 04:53N 33°59' E 134°53'2 5.2
2018-Feb-20 04:30N 34°00' E 134°52'3 5.7
2018-Feb-20 04:00N 34°02' E 134°50'3 5.6
2018-Feb-20 03:28N 34°05' E 134°48'3 5.3
2018-Feb-20 03:00N 34°07' E 134°46'3 5.2
2018-Feb-20 02:30N 34°09' E 134°44'3 4.6
2018-Feb-20 01:52N 34°12' E 134°42'1 3.7
2018-Feb-20 01:29N 34°13' E 134°41'3 3.7
2018-Feb-20 00:45N 34°15' E 134°43'0 0.5
2018-Feb-20 00:28N 34°15' E 134°43'  
2018-Feb-16 07:59N 34°15' E 134°43'3 5.2
2018-Feb-16 07:30N 34°14' E 134°40'3 5.6
2018-Feb-16 07:00N 34°16' E 134°38'4 7.2
2018-Feb-16 06:30N 34°20' E 134°39'3 6.9
2018-Feb-16 06:00N 34°22' E 134°41'3 6.5
2018-Feb-16 05:30N 34°25' E 134°43'3 6.4
2018-Feb-16 05:00N 34°28' E 134°46'3 6.0
2018-Feb-16 04:30N 34°30' E 134°48'3 5.8
2018-Feb-16 04:00N 34°32' E 134°50'3 6.3
2018-Feb-16 03:30N 34°34' E 134°53'3 6.3
2018-Feb-16 03:01N 34°35' E 134°57'2 4.0
2018-Feb-16 02:29N 34°34' E 134°55'5 9.7
2018-Feb-16 02:00N 34°31' E 134°50'510.1
2018-Feb-16 01:30N 34°28' E 134°46'5 9.8
2018-Feb-16 01:00N 34°23' E 134°43'510.0
2018-Feb-16 00:30N 34°19' E 134°39'510.8
2018-Feb-16 00:00N 34°14' E 134°39'3 4.5
2018-Feb-15 23:18N 34°15' E 134°43'0 0.3
2018-Feb-15 22:47N 34°15' E 134°43'0 0.0
2018-Feb-15 07:31N 34°15' E 134°43'010.5
2018-Feb-15 07:30N 34°15' E 134°43'4 7.5
2018-Feb-15 06:56N 34°16' E 134°38'410.2
2018-Feb-15 06:30N 34°20' E 134°39'510.4
2018-Feb-15 06:00N 34°24' E 134°43'510.0
2018-Feb-15 05:30N 34°28' E 134°47'5 9.4
2018-Feb-15 05:00N 34°32' E 134°50'4 8.4
2018-Feb-15 04:30N 34°34' E 134°55'2 3.5
2018-Feb-15 04:00N 34°35' E 134°57'4 7.5
2018-Feb-15 03:30N 34°33' E 134°53'3 6.9
2018-Feb-15 03:00N 34°31' E 134°49'3 6.7
2018-Feb-15 02:30N 34°29' E 134°47'3 6.2
2018-Feb-15 02:00N 34°26' E 134°44'3 5.9
2018-Feb-15 01:30N 34°24' E 134°42'3 5.7
2018-Feb-15 01:00N 34°22' E 134°40'3 5.6
2018-Feb-15 00:30N 34°19' E 134°39'4 6.6
2018-Feb-14 23:55N 34°15' E 134°39'3 5.5
2018-Feb-14 23:28N 34°14' E 134°42'1 3.2
2018-Feb-14 23:00N 34°15' E 134°43'0 0.1
2018-Feb-14 22:30N 34°15' E 134°43'0 0.0
2018-Feb-14 04:01N 34°15' E 134°43'0 4.6
2018-Feb-14 04:00N 34°15' E 134°43'5 4.4
2018-Feb-14 02:51N 34°11' E 134°47'2 6.9
2018-Feb-14 02:30N 34°12' E 134°50'1 1.0
2018-Feb-14 01:23N 34°13' E 134°51'0 0.1
2018-Feb-14 00:51N 34°13' E 134°50'0 0.4
2018-Feb-14 00:27N 34°13' E 134°51'1 2.2
2018-Feb-14 00:00N 34°12' E 134°50'2 4.6
2018-Feb-13 23:30N 34°11' E 134°47'4 4.5
2018-Feb-13 22:40N 34°12' E 134°43'2 5.1
2018-Feb-13 22:13N 34°14' E 134°42'2 5.8
2018-Feb-13 21:56N 34°15' E 134°43'  
Track history (hours):
 
Tides and Currents Weather Stations Pressure Air Temp Water Temp Dewpoint Dewpoint Depression Visibility Wind Speed Wind Dir Waves Ship Positions

Kaihou

Last reported at 2018-Feb-22 15:01 UTC. Time now 2018-Feb-24 06:07 UTC.
Position N 34°39' E 139°27'.

Length 33 m; draft 3.8 m.

Type: Towing. MMSI: 431402046.

Date/timePositionNaut miles runAvg speedWind from/ knotsBaromVisibWave heightAir tempDewpointWater temp
2018-Feb-22 15:01N 34°39' E 139°27'0 2.0
2018-Feb-22 15:00N 34°39' E 139°27'9 4.3
2018-Feb-22 12:48N 34°37' E 139°15'3 4.8
2018-Feb-22 12:09N 34°36' E 139°12'1 4.1
2018-Feb-22 12:00N 34°36' E 139°11'2 4.1
2018-Feb-22 11:30N 34°35' E 139°09'4 3.9
2018-Feb-22 10:36N 34°34' E 139°05'1 4.1
2018-Feb-22 10:25N 34°34' E 139°04'2 4.5
2018-Feb-22 09:58N 34°33' E 139°01'2 4.5
2018-Feb-22 09:30N 34°33' E 138°59'2 5.0
2018-Feb-22 09:00N 34°32' E 138°56'3 5.3
2018-Feb-22 08:27N 34°32' E 138°52'12 3.9
2018-Feb-22 05:27N 34°32' E 138°38'3 4.8
2018-Feb-22 04:48N 34°32' E 138°35'1 4.8
2018-Feb-22 04:29N 34°32' E 138°33'16 4.7
2018-Feb-22 01:11N 34°32' E 138°14'2 4.8
2018-Feb-22 00:51N 34°32' E 138°12'162 3.9
2018-Feb-20 07:10N 33°50' E 135°02'1 5.4
2018-Feb-20 06:56N 33°50' E 135°01'5 5.3
2018-Feb-20 06:03N 33°54' E 134°58'0 5.4
2018-Feb-20 05:58N 33°54' E 134°57'2 5.2
2018-Feb-20 05:29N 33°56' E 134°56'3 5.0
2018-Feb-20 04:53N 33°59' E 134°53'2 5.2
2018-Feb-20 04:30N 34°00' E 134°52'3 5.7
2018-Feb-20 04:00N 34°02' E 134°50'3 5.6
2018-Feb-20 03:28N 34°05' E 134°48'3 5.3
2018-Feb-20 03:00N 34°07' E 134°46'3 5.2
2018-Feb-20 02:30N 34°09' E 134°44'3 4.6
2018-Feb-20 01:52N 34°12' E 134°42'1 3.7
2018-Feb-20 01:29N 34°13' E 134°41'3 3.7
2018-Feb-20 00:45N 34°15' E 134°43'0 0.5
2018-Feb-20 00:28N 34°15' E 134°43'  
2018-Feb-16 07:59N 34°15' E 134°43'3 5.2
2018-Feb-16 07:30N 34°14' E 134°40'3 5.6
2018-Feb-16 07:00N 34°16' E 134°38'4 7.2
2018-Feb-16 06:30N 34°20' E 134°39'3 6.9
2018-Feb-16 06:00N 34°22' E 134°41'3 6.5
2018-Feb-16 05:30N 34°25' E 134°43'3 6.4
2018-Feb-16 05:00N 34°28' E 134°46'3 6.0
2018-Feb-16 04:30N 34°30' E 134°48'3 5.8
2018-Feb-16 04:00N 34°32' E 134°50'3 6.3
2018-Feb-16 03:30N 34°34' E 134°53'3 6.3
2018-Feb-16 03:01N 34°35' E 134°57'2 4.0
2018-Feb-16 02:29N 34°34' E 134°55'5 9.7
2018-Feb-16 02:00N 34°31' E 134°50'510.1
2018-Feb-16 01:30N 34°28' E 134°46'5 9.8
2018-Feb-16 01:00N 34°23' E 134°43'510.0
2018-Feb-16 00:30N 34°19' E 134°39'510.8
2018-Feb-16 00:00N 34°14' E 134°39'3 4.5
2018-Feb-15 23:18N 34°15' E 134°43'0 0.3
2018-Feb-15 22:47N 34°15' E 134°43'0 0.0
2018-Feb-15 07:31N 34°15' E 134°43'010.5
2018-Feb-15 07:30N 34°15' E 134°43'4 7.5
2018-Feb-15 06:56N 34°16' E 134°38'410.2
2018-Feb-15 06:30N 34°20' E 134°39'510.4
2018-Feb-15 06:00N 34°24' E 134°43'510.0
2018-Feb-15 05:30N 34°28' E 134°47'5 9.4
2018-Feb-15 05:00N 34°32' E 134°50'4 8.4
2018-Feb-15 04:30N 34°34' E 134°55'2 3.5
2018-Feb-15 04:00N 34°35' E 134°57'4 7.5
2018-Feb-15 03:30N 34°33' E 134°53'3 6.9
2018-Feb-15 03:00N 34°31' E 134°49'3 6.7
2018-Feb-15 02:30N 34°29' E 134°47'3 6.2
2018-Feb-15 02:00N 34°26' E 134°44'3 5.9
2018-Feb-15 01:30N 34°24' E 134°42'3 5.7
2018-Feb-15 01:00N 34°22' E 134°40'3 5.6
2018-Feb-15 00:30N 34°19' E 134°39'4 6.6
2018-Feb-14 23:55N 34°15' E 134°39'3 5.5
2018-Feb-14 23:28N 34°14' E 134°42'1 3.2
2018-Feb-14 23:00N 34°15' E 134°43'0 0.1
2018-Feb-14 22:30N 34°15' E 134°43'0 0.0
2018-Feb-14 04:01N 34°15' E 134°43'0 4.6
2018-Feb-14 04:00N 34°15' E 134°43'5 4.4
2018-Feb-14 02:51N 34°11' E 134°47'2 6.9
2018-Feb-14 02:30N 34°12' E 134°50'1 1.0
2018-Feb-14 01:23N 34°13' E 134°51'0 0.1
2018-Feb-14 00:51N 34°13' E 134°50'0 0.4
2018-Feb-14 00:27N 34°13' E 134°51'1 2.2
2018-Feb-14 00:00N 34°12' E 134°50'2 4.6
2018-Feb-13 23:30N 34°11' E 134°47'4 4.5
2018-Feb-13 22:40N 34°12' E 134°43'2 5.1
2018-Feb-13 22:13N 34°14' E 134°42'2 5.8
2018-Feb-13 21:56N 34°15' E 134°43'  

Dump ship's entire track history